Time,TemperatureF,DewpointF,PressureIn,WindDirection,WindDirectionDegrees,WindSpeedMPH,WindSpeedGustMPH,Humidity,HourlyPrecipIn,Conditions,Clouds,dailyrainin,SoftwareType,DateUTC
2013-03-13 00:01:00,18.3,11.6,30.15,WNW,292,0.0,0.0,75,0.00,,,0.00,WUHU140HW,2013-03-13 05:01:00,
2013-03-13 00:13:00,18.1,11.4,30.15,WNW,292,0.0,0.0,75,0.00,,,0.00,WUHU140HW,2013-03-13 05:13:00,
2013-03-13 00:24:00,17.9,11.5,30.16,NW,315,0.0,0.0,76,0.00,,,0.00,WUHU140HW,2013-03-13 05:24:00,
2013-03-13 00:36:00,17.7,11.3,30.16,WNW,292,0.0,0.0,76,0.00,,,0.00,WUHU140HW,2013-03-13 05:36:00,
2013-03-13 00:47:00,17.2,10.8,30.16,WNW,292,0.0,0.0,76,0.00,,,0.00,WUHU140HW,2013-03-13 05:47:00,
2013-03-13 00:58:00,16.8,10.6,30.17,NW,315,0.0,0.0,77,0.00,,,0.00,WUHU140HW,2013-03-13 05:58:00,
2013-03-13 01:10:00,16.7,10.6,30.17,WNW,292,0.0,0.0,77,0.00,,,0.00,WUHU140HW,2013-03-13 06:10:00,
2013-03-13 01:21:00,16.5,10.7,30.17,WNW,292,0.0,0.0,78,0.00,,,0.00,WUHU140HW,2013-03-13 06:21:00,
2013-03-13 01:45:00,15.9,10.3,30.18,WNW,292,0.0,0.0,78,0.00,,,0.00,WUHU140HW,2013-03-13 06:45:00,
2013-03-13 01:57:00,15.9,10.6,30.18,WNW,292,0.0,0.0,79,0.00,,,0.00,WUHU140HW,2013-03-13 06:57:00,
2013-03-13 02:08:00,15.6,10.2,30.18,WNW,292,0.0,0.0,79,0.00,,,0.00,WUHU140HW,2013-03-13 07:08:00,
2013-03-13 02:19:00,15.6,10.2,30.19,WNW,292,0.0,0.0,79,0.00,,,0.00,WUHU140HW,2013-03-13 07:19:00,
2013-03-13 02:31:00,15.4,10.0,30.19,WNW,292,0.0,0.0,79,0.00,,,0.00,WUHU140HW,2013-03-13 07:31:00,
2013-03-13 02:42:00,15.0,9.7,30.19,WNW,292,0.0,0.0,79,0.00,,,0.00,WUHU140HW,2013-03-13 07:42:00,
2013-03-13 02:54:00,15.0,10.0,30.20,WNW,292,0.0,0.0,80,0.00,,,0.00,WUHU140HW,2013-03-13 07:54:00,
2013-03-13 03:18:00,14.5,9.5,30.20,WNW,292,0.0,0.0,80,0.00,,,0.00,WUHU140HW,2013-03-13 08:18:00,
2013-03-13 03:29:00,14.1,9.3,30.20,WNW,292,0.0,0.0,81,0.00,,,0.00,WUHU140HW,2013-03-13 08:29:00,
2013-03-13 03:41:00,14.0,9.2,30.21,WNW,292,0.0,0.0,81,0.00,,,0.00,WUHU140HW,2013-03-13 08:41:00,
2013-03-13 03:52:00,13.8,9.3,30.21,WNW,292,0.0,0.0,82,0.00,,,0.00,WUHU140HW,2013-03-13 08:52:00,
2013-03-13 04:04:00,13.8,9.3,30.21,WNW,292,0.0,0.0,82,0.00,,,0.00,WUHU140HW,2013-03-13 09:04:00,
2013-03-13 04:15:00,13.4,8.9,30.21,WNW,292,0.0,0.0,82,0.00,,,0.00,WUHU140HW,2013-03-13 09:15:00,
2013-03-13 04:27:00,13.1,8.6,30.21,WNW,292,0.0,0.0,82,0.00,,,0.00,WUHU140HW,2013-03-13 09:27:00,
2013-03-13 04:38:00,12.9,8.4,30.21,WNW,292,0.0,0.0,82,0.00,,,0.00,WUHU140HW,2013-03-13 09:38:00,
2013-03-13 04:49:00,12.7,8.2,30.22,WNW,292,0.0,0.0,82,0.00,,,0.00,WUHU140HW,2013-03-13 09:49:00,
2013-03-13 05:01:00,12.2,7.7,30.22,WNW,292,0.0,0.0,82,0.00,,,0.00,WUHU140HW,2013-03-13 10:01:00,
2013-03-13 05:13:00,12.0,7.7,30.23,WNW,292,0.0,0.0,83,0.00,,,0.00,WUHU140HW,2013-03-13 10:13:00,
2013-03-13 05:24:00,11.4,7.2,30.23,WNW,292,0.0,0.0,83,0.00,,,0.00,WUHU140HW,2013-03-13 10:24:00,
2013-03-13 05:35:00,11.1,6.8,30.23,WNW,292,0.0,0.0,83,0.00,,,0.00,WUHU140HW,2013-03-13 10:35:00,
2013-03-13 05:47:00,10.9,6.7,30.24,West,270,0.0,0.0,83,0.00,,,0.00,WUHU140HW,2013-03-13 10:47:00,
2013-03-13 05:58:00,10.5,6.3,30.25,WNW,292,0.0,0.0,83,0.00,,,0.00,WUHU140HW,2013-03-13 10:58:00,
2013-03-13 06:10:00,10.5,6.3,30.25,WNW,292,0.0,0.0,83,0.00,,,0.00,WUHU140HW,2013-03-13 11:10:00,
2013-03-13 06:21:00,10.2,5.9,30.25,West,270,0.0,0.0,83,0.00,,,0.00,WUHU140HW,2013-03-13 11:21:00,
2013-03-13 06:32:00,10.2,6.2,30.26,WNW,292,0.0,0.0,84,0.00,,,0.00,WUHU140HW,2013-03-13 11:32:00,
2013-03-13 06:44:00,10.2,6.2,30.26,WNW,292,0.0,0.0,84,0.00,,,0.00,WUHU140HW,2013-03-13 11:44:00,
2013-03-13 06:55:00,10.2,6.2,30.26,WNW,292,0.0,0.0,84,0.00,,,0.00,WUHU140HW,2013-03-13 11:55:00,
2013-03-13 07:07:00,10.0,6.0,30.26,WNW,292,0.0,0.0,84,0.00,,,0.00,WUHU140HW,2013-03-13 12:07:00,
2013-03-13 07:18:00,9.6,5.7,30.27,WNW,292,0.0,0.0,84,0.00,,,0.00,WUHU140HW,2013-03-13 12:18:00,
2013-03-13 07:29:00,10.0,6.0,30.27,WNW,292,0.0,0.0,84,0.00,,,0.00,WUHU140HW,2013-03-13 12:29:00,
2013-03-13 07:41:00,10.2,6.2,30.27,WNW,292,0.0,0.0,84,0.00,,,0.00,WUHU140HW,2013-03-13 12:41:00,
2013-03-13 07:53:00,11.1,7.4,30.28,WNW,292,0.0,0.0,85,0.00,,,0.00,WUHU140HW,2013-03-13 12:53:00,
2013-03-13 08:04:00,12.5,9.1,30.28,WNW,292,0.0,0.0,86,0.00,,,0.00,WUHU140HW,2013-03-13 13:04:00,
2013-03-13 08:15:00,13.6,10.2,30.28,WNW,292,0.0,0.0,86,0.00,,,0.00,WUHU140HW,2013-03-13 13:15:00,
2013-03-13 08:27:00,15.0,11.3,30.28,WSW,247,0.0,0.0,85,0.00,,,0.00,WUHU140HW,2013-03-13 13:27:00,
2013-03-13 08:38:00,16.3,12.2,30.28,West,270,0.0,0.0,84,0.00,,,0.00,WUHU140HW,2013-03-13 13:38:00,
2013-03-13 08:50:00,17.4,12.2,30.28,WNW,292,0.0,0.0,80,0.00,,,0.00,WUHU140HW,2013-03-13 13:50:00,
2013-03-13 09:01:00,18.3,12.2,30.29,WNW,292,0.0,0.0,77,0.00,,,0.00,WUHU140HW,2013-03-13 14:01:00,
2013-03-13 09:12:00,18.5,11.4,30.30,WNW,292,0.0,0.0,74,0.00,,,0.00,WUHU140HW,2013-03-13 14:12:00,
2013-03-13 09:24:00,18.8,11.5,30.30,WNW,292,0.0,0.0,73,0.00,,,0.00,WUHU140HW,2013-03-13 14:24:00,
2013-03-13 09:35:00,18.8,11.2,30.30,WNW,292,0.0,0.0,72,0.00,,,0.00,WUHU140HW,2013-03-13 14:35:00,
2013-03-13 09:47:00,19.2,11.5,30.31,WNW,292,0.0,0.0,72,0.00,,,0.00,WUHU140HW,2013-03-13 14:47:00,
2013-03-13 09:58:00,19.2,11.2,30.32,WNW,292,0.0,0.0,71,0.00,,,0.00,WUHU140HW,2013-03-13 14:58:00,
2013-03-13 10:10:00,19.9,11.9,30.32,WNW,292,0.0,0.0,71,0.00,,,0.00,WUHU140HW,2013-03-13 15:10:00,
2013-03-13 10:21:00,20.3,12.3,30.32,WNW,292,0.0,0.0,71,0.00,,,0.00,WUHU140HW,2013-03-13 15:21:00,
2013-03-13 10:33:00,21.5,13.2,30.33,WNW,292,0.0,0.0,70,0.00,,,0.00,WUHU140HW,2013-03-13 15:33:00,
2013-03-13 10:44:00,21.9,13.2,30.33,WNW,292,0.0,0.0,69,0.00,,,0.00,WUHU140HW,2013-03-13 15:44:00,
2013-03-13 10:56:00,23.0,14.0,30.33,SW,225,0.0,0.0,68,0.00,,,0.00,WUHU140HW,2013-03-13 15:56:00,
2013-03-13 11:07:00,24.9,15.1,30.33,WNW,292,0.0,0.0,66,0.00,,,0.00,WUHU140HW,2013-03-13 16:07:00,
2013-03-13 11:18:00,24.4,14.2,30.33,WNW,292,0.0,0.0,65,0.00,,,0.00,WUHU140HW,2013-03-13 16:18:00,
2013-03-13 11:30:00,24.6,14.4,30.33,WNW,292,0.0,0.0,65,0.00,,,0.00,WUHU140HW,2013-03-13 16:30:00,
2013-03-13 11:41:00,25.5,14.9,30.33,WNW,292,0.0,0.0,64,0.00,,,0.00,WUHU140HW,2013-03-13 16:41:00,
2013-03-13 11:53:00,25.3,14.0,30.34,WNW,292,0.0,0.0,62,0.00,,,0.00,WUHU140HW,2013-03-13 16:53:00,
2013-03-13 12:04:00,26.2,15.6,30.34,WNW,292,0.0,0.0,64,0.00,,,0.00,WUHU140HW,2013-03-13 17:04:00,
2013-03-13 12:15:00,29.4,18.0,30.33,SW,225,0.0,0.0,63,0.00,,,0.00,WUHU140HW,2013-03-13 17:15:00,
2013-03-13 12:27:00,30.9,18.2,30.33,SW,225,0.0,0.0,59,0.00,,,0.00,WUHU140HW,2013-03-13 17:27:00,
2013-03-13 12:38:00,31.8,19.1,30.33,West,270,0.0,0.0,59,0.00,,,0.00,WUHU140HW,2013-03-13 17:38:00,
2013-03-13 12:49:00,32.7,19.5,30.33,SW,225,0.0,0.0,58,0.00,,,0.00,WUHU140HW,2013-03-13 17:49:00,
2013-03-13 13:01:00,32.9,18.8,30.33,WNW,292,0.0,0.0,56,0.00,,,0.00,WUHU140HW,2013-03-13 18:01:00,
2013-03-13 13:13:00,33.0,18.5,30.33,SW,225,0.0,0.0,55,0.00,,,0.00,WUHU140HW,2013-03-13 18:13:00,
2013-03-13 13:24:00,34.3,19.7,30.33,WNW,292,0.0,0.0,55,0.00,,,0.00,WUHU140HW,2013-03-13 18:24:00,
2013-03-13 13:35:00,34.1,19.1,30.33,SSW,202,0.0,0.0,54,0.00,,,0.00,WUHU140HW,2013-03-13 18:35:00,
2013-03-13 13:47:00,34.3,19.7,30.33,WSW,247,0.0,0.0,55,0.00,,,0.00,WUHU140HW,2013-03-13 18:47:00,
2013-03-13 13:58:00,33.9,18.9,30.32,West,270,0.0,0.0,54,0.00,,,0.00,WUHU140HW,2013-03-13 18:58:00,
2013-03-13 14:10:00,34.3,19.7,30.31,West,270,0.0,0.0,55,0.00,,,0.00,WUHU140HW,2013-03-13 19:10:00,
2013-03-13 14:21:00,35.2,20.6,30.31,WSW,247,0.0,0.0,55,0.00,,,0.00,WUHU140HW,2013-03-13 19:21:00,
2013-03-13 14:33:00,35.9,20.4,30.31,SW,225,0.0,0.0,53,0.00,,,0.00,WUHU140HW,2013-03-13 19:33:00,
2013-03-13 14:44:00,36.1,20.6,30.31,SW,225,0.0,0.0,53,0.00,,,0.00,WUHU140HW,2013-03-13 19:44:00,
2013-03-13 14:55:00,36.1,20.2,30.30,SW,225,0.0,0.0,52,0.00,,,0.00,WUHU140HW,2013-03-13 19:55:00,
2013-03-13 15:07:00,33.6,17.3,30.30,WNW,292,0.0,0.0,51,0.00,,,0.00,WUHU140HW,2013-03-13 20:07:00,
2013-03-13 15:18:00,31.8,16.5,30.30,WNW,292,0.0,0.0,53,0.00,,,0.00,WUHU140HW,2013-03-13 20:18:00,
2013-03-13 15:30:00,31.2,16.0,30.30,West,270,0.0,0.0,53,0.00,,,0.00,WUHU140HW,2013-03-13 20:30:00,
2013-03-13 15:41:00,31.8,16.1,30.29,WNW,292,0.0,0.0,52,0.00,,,0.00,WUHU140HW,2013-03-13 20:41:00,
2013-03-13 15:53:00,31.8,16.1,30.29,West,270,0.0,0.0,52,0.00,,,0.00,WUHU140HW,2013-03-13 20:53:00,
2013-03-13 16:04:00,31.2,16.0,30.30,West,270,0.0,0.0,53,0.00,,,0.00,WUHU140HW,2013-03-13 21:04:00,
2013-03-13 16:15:00,32.7,18.6,30.30,SSW,202,0.0,0.0,56,0.00,,,0.00,WUHU140HW,2013-03-13 21:15:00,
2013-03-13 16:27:00,33.6,19.4,30.30,SW,225,0.0,0.0,56,0.00,,,0.00,WUHU140HW,2013-03-13 21:27:00,
2013-03-13 16:38:00,33.9,19.4,30.29,SW,225,0.0,0.0,55,0.00,,,0.00,WUHU140HW,2013-03-13 21:38:00,
2013-03-13 16:50:00,34.3,19.7,30.29,SSW,202,0.0,0.0,55,0.00,,,0.00,WUHU140HW,2013-03-13 21:50:00,
2013-03-13 17:01:00,34.3,19.7,30.28,SW,225,0.0,0.0,55,0.00,,,0.00,WUHU140HW,2013-03-13 22:01:00,
2013-03-13 17:13:00,33.0,18.5,30.28,SSW,202,0.0,0.0,55,0.00,,,0.00,WUHU140HW,2013-03-13 22:13:00,
2013-03-13 17:24:00,31.8,17.4,30.28,SW,225,0.0,0.0,55,0.00,,,0.00,WUHU140HW,2013-03-13 22:24:00,
2013-03-13 17:36:00,31.1,16.8,30.28,SW,225,0.0,0.0,56,0.00,,,0.00,WUHU140HW,2013-03-13 22:36:00,
2013-03-13 17:47:00,30.0,16.5,30.27,SW,225,0.0,0.0,57,0.00,,,0.00,WUHU140HW,2013-03-13 22:47:00,
2013-03-13 17:58:00,29.1,15.7,30.27,WSW,247,0.0,0.0,57,0.00,,,0.00,WUHU140HW,2013-03-13 22:58:00,
2013-03-13 18:10:00,28.0,15.1,30.26,SW,225,0.0,0.0,58,0.00,,,0.00,WUHU140HW,2013-03-13 23:10:00,
2013-03-13 18:21:00,27.1,14.2,30.26,SSW,202,0.0,0.0,58,0.00,,,0.00,WUHU140HW,2013-03-13 23:21:00,
2013-03-13 18:33:00,26.2,13.8,30.26,SSW,202,0.0,0.0,59,0.00,,,0.00,WUHU140HW,2013-03-13 23:33:00,
2013-03-13 18:44:00,25.5,13.5,30.27,SW,225,0.0,0.0,60,0.00,,,0.00,WUHU140HW,2013-03-13 23:44:00,
2013-03-13 18:56:00,24.8,13.2,30.27,WNW,292,0.0,0.0,61,0.00,,,0.00,WUHU140HW,2013-03-13 23:56:00,
2013-03-13 19:07:00,23.1,11.3,30.27,WNW,292,0.0,0.0,60,0.00,,,0.00,WUHU140HW,2013-03-14 00:07:00,
2013-03-13 19:18:00,21.9,10.8,30.27,WNW,292,0.0,0.0,62,0.00,,,0.00,WUHU140HW,2013-03-14 00:18:00,
2013-03-13 19:30:00,20.8,10.1,30.27,WNW,292,0.0,0.0,63,0.00,,,0.00,WUHU140HW,2013-03-14 00:30:00,
2013-03-13 19:41:00,19.9,9.6,30.27,WNW,292,0.0,0.0,64,0.00,,,0.00,WUHU140HW,2013-03-14 00:41:00,
2013-03-13 19:53:00,18.6,8.7,30.27,WNW,292,0.0,0.0,65,0.00,,,0.00,WUHU140HW,2013-03-14 00:53:00,
2013-03-13 20:04:00,17.9,8.4,30.27,WNW,292,0.0,0.0,66,0.00,,,0.00,WUHU140HW,2013-03-14 01:04:00,
2013-03-13 20:16:00,17.4,7.9,30.26,WNW,292,0.0,0.0,66,0.00,,,0.00,WUHU140HW,2013-03-14 01:16:00,
2013-03-13 20:27:00,17.4,8.6,30.26,WNW,292,0.0,0.0,68,0.00,,,0.00,WUHU140HW,2013-03-14 01:27:00,
2013-03-13 20:38:00,17.4,8.6,30.26,WNW,292,0.0,0.0,68,0.00,,,0.00,WUHU140HW,2013-03-14 01:38:00,
2013-03-13 20:50:00,17.4,8.9,30.25,WNW,292,0.0,0.0,69,0.00,,,0.00,WUHU140HW,2013-03-14 01:50:00,
2013-03-13 21:01:00,17.4,9.3,30.25,SSE,157,0.0,0.0,70,0.00,,,0.00,WUHU140HW,2013-03-14 02:01:00,
2013-03-13 21:13:00,18.1,10.2,30.24,SSE,157,0.0,0.0,71,0.00,,,0.00,WUHU140HW,2013-03-14 02:13:00,
2013-03-13 21:24:00,19.4,11.5,30.24,SSW,202,0.0,0.0,72,0.00,,,0.00,WUHU140HW,2013-03-14 02:24:00,
2013-03-13 21:36:00,19.5,11.9,30.24,SSE,157,0.0,0.0,72,0.00,,,0.00,WUHU140HW,2013-03-14 02:36:00,
2013-03-13 21:47:00,20.1,12.7,30.24,South,180,0.0,0.0,73,0.00,,,0.00,WUHU140HW,2013-03-14 02:47:00,
2013-03-13 21:58:00,20.4,13.1,30.24,SSE,157,0.0,0.0,73,0.00,,,0.00,WUHU140HW,2013-03-14 02:58:00,
2013-03-13 22:10:00,20.8,13.7,30.23,South,180,0.0,0.0,74,0.00,,,0.00,WUHU140HW,2013-03-14 03:10:00,
2013-03-13 22:21:00,21.2,14.4,30.23,SSE,157,0.0,0.0,75,0.00,,,0.00,WUHU140HW,2013-03-14 03:21:00,
2013-03-13 22:33:00,21.5,14.8,30.23,SSE,157,0.0,0.0,75,0.00,,,0.00,WUHU140HW,2013-03-14 03:33:00,
2013-03-13 22:44:00,21.9,15.4,30.22,SSE,157,0.0,0.0,76,0.00,,,0.00,WUHU140HW,2013-03-14 03:44:00,
2013-03-13 22:56:00,22.1,15.6,30.22,South,180,0.0,0.0,76,0.00,,,0.00,WUHU140HW,2013-03-14 03:56:00,
2013-03-13 23:07:00,22.2,16.1,30.22,South,180,0.0,0.0,77,0.00,,,0.00,WUHU140HW,2013-03-14 04:07:00,
2013-03-13 23:18:00,22.4,16.3,30.22,SSE,157,0.0,0.0,77,0.00,,,0.00,WUHU140HW,2013-03-14 04:18:00,
2013-03-13 23:30:00,22.6,16.5,30.21,SSE,157,0.0,0.0,77,0.00,,,0.00,WUHU140HW,2013-03-14 04:30:00,
2013-03-13 23:41:00,22.6,16.5,30.21,SSE,157,0.0,0.0,77,0.00,,,0.00,WUHU140HW,2013-03-14 04:41:00,
2013-03-13 23:53:00,22.8,16.6,30.21,South,180,0.0,0.0,77,0.00,,,0.00,WUHU140HW,2013-03-14 04:53:00,